createdAt,value
2017-03-16T00:03:38.808Z,3.9
2017-03-16T00:13:52.467Z,3.3
2017-03-16T00:24:07.329Z,4
2017-03-16T00:34:21.830Z,3.7
2017-03-16T00:44:35.550Z,3.6
2017-03-16T00:54:50.038Z,3.1
2017-03-16T01:05:04.819Z,2.9
2017-03-16T01:15:18.088Z,3.5
2017-03-16T01:25:31.764Z,2.8
2017-03-16T01:35:46.518Z,2.6
2017-03-16T01:46:00.451Z,2.5
2017-03-16T01:56:13.849Z,1.9
2017-03-16T02:06:27.688Z,2.2
2017-03-16T02:16:41.451Z,2.5
2017-03-16T02:26:56.414Z,2.3
2017-03-16T02:37:11.160Z,2.1
2017-03-16T02:47:26.255Z,2.1
2017-03-16T02:57:39.825Z,2.1
2017-03-16T03:07:54.744Z,1.8
2017-03-16T03:18:08.298Z,1.2
2017-03-16T03:28:21.311Z,2.1
2017-03-16T03:38:35.499Z,2.4
2017-03-16T03:48:49.576Z,2.3
2017-03-16T03:59:03.576Z,2.2
2017-03-16T04:09:18.058Z,2.4
2017-03-16T04:19:32.421Z,2.2
2017-03-16T04:29:46.894Z,1.8
2017-03-16T04:40:01.484Z,2.1
2017-03-16T04:50:15.927Z,2.2
2017-03-16T05:00:30.491Z,2.1
2017-03-16T05:10:44.649Z,2.1
2017-03-16T05:20:59.487Z,2
2017-03-16T05:31:14.055Z,2
2017-03-16T05:41:28.295Z,2.2
2017-03-16T06:01:56.075Z,2.4
2017-03-16T06:12:09.982Z,2.4
2017-03-16T06:22:23.263Z,2.7
2017-03-16T06:32:37.322Z,3
2017-03-16T06:42:51.188Z,3.5
2017-03-16T06:53:05.710Z,3.7
2017-03-16T07:03:20.688Z,4
2017-03-16T07:23:47.450Z,5.6
2017-03-16T07:34:02.326Z,6.4
2017-03-16T07:44:17.216Z,7
2017-03-16T07:54:31.133Z,7.6
2017-03-16T08:14:58.615Z,8.8
2017-03-16T08:25:12.804Z,10
2017-03-16T08:35:27.080Z,10.5
2017-03-16T08:45:40.623Z,10.9
2017-03-16T08:55:55.562Z,11
2017-03-16T09:06:08.776Z,11.6
2017-03-16T09:16:22.974Z,11.7
2017-03-16T09:26:37.817Z,12.5
2017-03-16T09:36:51.901Z,12.7
2017-03-16T09:47:06.778Z,12.8
2017-03-16T09:57:20.171Z,13.7
2017-03-16T10:07:34.828Z,14.5
2017-03-16T10:17:49.907Z,14.1
2017-03-16T10:28:03.115Z,14
2017-03-16T10:38:17.605Z,15.1
2017-03-16T10:48:31.318Z,15.1
2017-03-16T10:58:44.724Z,14.7
2017-03-16T11:08:59.499Z,15.5
2017-03-16T11:19:14.565Z,15.6
2017-03-16T11:29:29.339Z,15.9
2017-03-16T11:39:44.498Z,15.3
2017-03-16T11:49:59.025Z,15.5
2017-03-16T12:00:12.375Z,16.3
2017-03-16T12:10:26.815Z,17.1
2017-03-16T12:20:41.862Z,16.3
2017-03-16T12:30:56.232Z,16
2017-03-16T12:41:09.574Z,16.5
2017-03-16T12:51:23.089Z,17.3
2017-03-16T13:01:38.317Z,16.2
2017-03-16T13:11:52.540Z,16.6
2017-03-16T13:32:20.530Z,17
2017-03-16T13:42:34.989Z,16.9
2017-03-16T13:52:49.904Z,17.7
2017-03-16T14:03:04.311Z,18.1
2017-03-16T14:13:18.859Z,17.2
2017-03-16T14:23:33.495Z,18.5
2017-03-16T14:33:48.231Z,17.5
2017-03-16T14:44:01.580Z,17.6
2017-03-16T14:54:15.853Z,17.8
2017-03-16T15:04:29.594Z,17.9
2017-03-16T15:14:44.482Z,17.8
2017-03-16T15:24:57.995Z,17.9
2017-03-16T15:35:12.416Z,17.9
2017-03-16T15:45:26.890Z,17.5
2017-03-16T15:55:40.877Z,17.4
2017-03-16T16:16:08.649Z,17.2
2017-03-16T16:26:22.641Z,16.9
2017-03-16T16:36:37.348Z,16.5
2017-03-16T16:46:51.133Z,15.7
2017-03-16T16:57:04.413Z,15.3
2017-03-16T17:07:17.688Z,14.9
2017-03-16T17:17:32.343Z,14.4
2017-03-16T17:27:46.884Z,13.3
2017-03-16T17:38:01.327Z,12.5
2017-03-16T17:48:14.659Z,13
2017-03-16T17:58:28.330Z,12.9
2017-03-16T18:08:43.291Z,12.4
2017-03-16T18:18:56.962Z,12.1
2017-03-16T18:29:11.913Z,11
2017-03-16T18:39:25.979Z,10.7
2017-03-16T18:49:40.078Z,11.3
2017-03-16T18:59:55.016Z,10.8
2017-03-16T19:10:08.932Z,10.4
2017-03-16T19:20:22.789Z,10.4
2017-03-16T19:30:37.320Z,9.4
2017-03-16T19:40:52.096Z,10.1
2017-03-16T19:51:06.445Z,10.3
2017-03-16T20:01:20.479Z,9.5
2017-03-16T20:11:35.638Z,9.7
2017-03-16T20:21:49.537Z,9.4
2017-03-16T20:32:03.236Z,9.2
2017-03-16T20:42:17.525Z,8.9
2017-03-16T20:52:31.204Z,8.7
2017-03-16T21:02:44.449Z,8.5
2017-03-16T21:12:59.451Z,8.3
2017-03-16T21:23:14.058Z,8.2
2017-03-16T21:33:28.157Z,8.7
2017-03-16T21:43:41.960Z,8.6
2017-03-16T21:53:57.000Z,8.1
2017-03-16T22:04:10.129Z,7.6
2017-03-16T22:14:25.189Z,6.8
2017-03-16T22:24:39.762Z,6.7
2017-03-16T22:34:53.189Z,7.4
2017-03-16T22:45:07.853Z,7.9
2017-03-16T22:55:22.294Z,8.2
2017-03-16T23:05:36.977Z,7
2017-03-16T23:15:51.337Z,6.1
2017-03-16T23:26:05.465Z,6.3
2017-03-16T23:36:18.536Z,7.3
2017-03-16T23:46:32.664Z,7.4
2017-03-16T23:56:47.135Z,7.3
